createdAt,value
2022-12-23T00:01:13.467Z,100.00
2022-12-23T00:03:40.469Z,100.00
2022-12-23T00:06:14.415Z,100.00
2022-12-23T00:08:41.990Z,100.00
2022-12-23T00:11:13.832Z,100.00
2022-12-23T00:13:59.202Z,100.00
2022-12-23T00:16:25.731Z,100.00
2022-12-23T00:18:53.405Z,100.00
2022-12-23T00:21:20.271Z,100.00
2022-12-23T00:23:48.683Z,100.00
2022-12-23T00:26:21.453Z,100.00
2022-12-23T00:28:48.107Z,100.00
2022-12-23T00:31:15.656Z,100.00
2022-12-23T00:33:44.205Z,100.00
2022-12-23T00:36:17.943Z,100.00
2022-12-23T00:39:03.302Z,100.00
2022-12-23T00:41:48.676Z,100.00
2022-12-23T00:44:15.543Z,100.00
2022-12-23T00:46:42.023Z,100.00
2022-12-23T00:49:26.716Z,100.00
2022-12-23T00:51:53.277Z,100.00
2022-12-23T00:54:19.881Z,100.00
2022-12-23T00:56:46.334Z,100.00
2022-12-23T00:59:12.924Z,100.00
2022-12-23T01:01:57.827Z,100.00
2022-12-23T01:04:43.130Z,100.00
2022-12-23T01:07:10.114Z,100.00
2022-12-23T01:09:36.682Z,100.00
2022-12-23T01:12:03.349Z,100.00
2022-12-23T01:14:29.871Z,100.00
2022-12-23T01:16:56.415Z,100.00
2022-12-23T01:19:23.186Z,100.00
2022-12-23T01:21:49.703Z,100.00
2022-12-23T01:24:16.409Z,100.00
2022-12-23T01:26:45.234Z,100.00
2022-12-23T01:29:11.789Z,100.00
2022-12-23T01:31:38.582Z,100.00
2022-12-23T01:34:05.514Z,100.00
2022-12-23T01:36:32.023Z,100.00
2022-12-23T01:38:58.509Z,100.00
2022-12-23T01:41:50.792Z,100.00
2022-12-23T01:44:48.053Z,100.00
2022-12-23T01:47:27.016Z,100.00
2022-12-23T01:50:01.263Z,100.00
2022-12-23T01:52:28.658Z,100.00
2022-12-23T01:54:56.036Z,100.00
2022-12-23T01:57:23.756Z,100.00
2022-12-23T02:00:09.388Z,100.00
2022-12-23T02:02:57.026Z,100.00
2022-12-23T02:05:24.084Z,100.00
2022-12-23T02:08:12.117Z,100.00
2022-12-23T02:11:11.919Z,100.00
2022-12-23T02:14:21.647Z,100.00
2022-12-23T02:17:00.077Z,100.00
2022-12-23T02:20:08.598Z,100.00
2022-12-23T02:23:00.162Z,100.00
2022-12-23T02:26:08.499Z,100.00
2022-12-23T02:29:05.832Z,100.00
2022-12-23T02:31:48.326Z,100.00
2022-12-23T02:34:20.170Z,100.00
2022-12-23T02:37:28.311Z,100.00
2022-12-23T02:40:00.066Z,100.00
2022-12-23T02:42:42.651Z,100.00
2022-12-23T02:45:21.859Z,100.00
2022-12-23T02:47:54.943Z,100.00
2022-12-23T02:50:28.177Z,100.00
2022-12-23T02:52:58.568Z,100.00
2022-12-23T02:55:32.788Z,100.00
2022-12-23T02:58:03.134Z,100.00
2022-12-23T03:00:30.896Z,100.00
2022-12-23T03:02:57.625Z,100.00
2022-12-23T03:05:24.258Z,100.00
2022-12-23T03:07:54.581Z,100.00
2022-12-23T03:10:33.221Z,100.00
2022-12-23T03:13:02.730Z,100.00
2022-12-23T03:15:57.351Z,100.00
2022-12-23T03:18:40.078Z,100.00
2022-12-23T03:21:29.557Z,100.00
2022-12-23T03:24:27.876Z,100.00
2022-12-23T03:27:03.083Z,100.00
2022-12-23T03:29:54.483Z,100.00
2022-12-23T03:32:22.239Z,100.00
2022-12-23T03:34:52.128Z,100.00
2022-12-23T03:37:21.196Z,100.00
2022-12-23T03:39:57.114Z,100.00
2022-12-23T03:42:31.827Z,100.00
2022-12-23T03:45:37.159Z,100.00
2022-12-23T03:47:57.525Z,100.00
2022-12-23T03:50:25.377Z,100.00
2022-12-23T03:52:55.143Z,100.00
2022-12-23T03:55:29.349Z,100.00
2022-12-23T03:58:10.253Z,100.00
2022-12-23T04:00:44.168Z,100.00
2022-12-23T04:03:35.627Z,100.00
2022-12-23T04:06:05.292Z,100.00
2022-12-23T04:08:36.333Z,100.00
2022-12-23T04:11:04.204Z,100.00
2022-12-23T04:13:31.659Z,100.00
2022-12-23T04:15:59.502Z,100.00
2022-12-23T04:18:26.015Z,100.00
2022-12-23T04:20:52.498Z,100.00
2022-12-23T04:23:19.019Z,100.00
2022-12-23T04:25:45.467Z,100.00
2022-12-23T04:28:11.951Z,100.00
2022-12-23T04:30:38.453Z,100.00
2022-12-23T04:33:04.950Z,100.00
2022-12-23T04:35:31.549Z,100.00
2022-12-23T04:37:58.094Z,100.00
2022-12-23T04:40:24.553Z,100.00
2022-12-23T04:42:51.019Z,100.00
2022-12-23T04:45:17.467Z,100.00
2022-12-23T04:47:43.888Z,100.00
2022-12-23T04:50:14.731Z,100.00
2022-12-23T04:52:42.350Z,100.00
2022-12-23T04:55:09.596Z,100.00
2022-12-23T04:57:36.069Z,100.00
2022-12-23T05:00:03.996Z,100.00
2022-12-23T05:02:30.515Z,100.00
2022-12-23T05:04:57.000Z,100.00
2022-12-23T05:07:23.443Z,100.00
2022-12-23T05:09:49.868Z,100.00
2022-12-23T05:12:17.306Z,100.00
2022-12-23T05:14:43.745Z,100.00
2022-12-23T05:17:10.216Z,100.00
2022-12-23T05:19:36.704Z,100.00
2022-12-23T05:22:03.217Z,100.00
2022-12-23T05:24:29.767Z,100.00
2022-12-23T05:27:00.163Z,100.00
2022-12-23T05:29:27.384Z,100.00
2022-12-23T05:31:54.018Z,100.00
2022-12-23T05:34:20.964Z,100.00
2022-12-23T05:36:47.478Z,100.00
2022-12-23T05:39:14.057Z,100.00
2022-12-23T05:41:40.530Z,100.00
2022-12-23T05:44:07.002Z,100.00
2022-12-23T05:46:33.821Z,100.00
2022-12-23T05:49:00.465Z,100.00
2022-12-23T05:51:27.014Z,100.00
2022-12-23T05:53:53.441Z,100.00
2022-12-23T05:56:19.904Z,100.00
2022-12-23T05:58:46.413Z,100.00
2022-12-23T06:01:14.220Z,100.00
2022-12-23T06:03:40.824Z,100.00
2022-12-23T06:06:07.479Z,100.00
2022-12-23T06:08:33.989Z,100.00
2022-12-23T06:11:00.522Z,100.00
2022-12-23T06:13:26.986Z,100.00
2022-12-23T06:15:53.504Z,100.00
2022-12-23T06:18:20.008Z,100.00
2022-12-23T06:20:47.720Z,100.00
2022-12-23T06:23:14.342Z,100.00
2022-12-23T06:25:40.913Z,100.00
2022-12-23T06:28:08.043Z,100.00
2022-12-23T06:30:34.883Z,100.00
2022-12-23T06:33:01.458Z,100.00
2022-12-23T06:35:27.984Z,100.00
2022-12-23T06:37:54.614Z,100.00
2022-12-23T06:40:21.236Z,100.00
2022-12-23T06:42:47.748Z,100.00
2022-12-23T06:45:24.912Z,100.00
2022-12-23T06:47:51.411Z,100.00
2022-12-23T06:50:17.848Z,100.00
2022-12-23T06:52:45.250Z,100.00
2022-12-23T06:55:11.777Z,100.00
2022-12-23T06:57:38.269Z,100.00
2022-12-23T07:00:05.449Z,100.00
2022-12-23T07:02:32.106Z,100.00
2022-12-23T07:04:58.654Z,100.00
2022-12-23T07:07:25.099Z,100.00
2022-12-23T07:09:51.722Z,100.00
2022-12-23T07:12:18.204Z,100.00
2022-12-23T07:14:44.677Z,100.00
2022-12-23T07:17:11.547Z,100.00
2022-12-23T07:19:38.060Z,100.00
2022-12-23T07:22:04.750Z,100.00
2022-12-23T07:24:31.274Z,100.00
2022-12-23T07:26:58.933Z,100.00
2022-12-23T07:29:25.402Z,100.00
2022-12-23T07:31:53.069Z,100.00
2022-12-23T07:34:19.657Z,100.00
2022-12-23T07:36:46.123Z,100.00
2022-12-23T07:39:12.611Z,100.00
2022-12-23T07:41:39.118Z,100.00
2022-12-23T07:44:06.186Z,100.00
2022-12-23T07:46:32.776Z,100.00
2022-12-23T07:48:59.325Z,100.00
2022-12-23T07:51:25.776Z,100.00
2022-12-23T07:53:52.291Z,100.00
2022-12-23T07:56:19.105Z,100.00
2022-12-23T07:58:50.061Z,100.00
2022-12-23T08:01:17.614Z,100.00
2022-12-23T08:03:44.198Z,100.00
2022-12-23T08:06:12.705Z,100.00
2022-12-23T08:08:40.558Z,100.00
2022-12-23T08:11:10.856Z,100.00
2022-12-23T08:13:39.537Z,100.00
2022-12-23T08:16:07.633Z,100.00
2022-12-23T08:18:36.503Z,100.00
2022-12-23T08:21:08.702Z,100.00
2022-12-23T08:23:35.547Z,100.00
2022-12-23T08:26:07.464Z,100.00
2022-12-23T08:28:35.059Z,100.00
2022-12-23T08:31:06.146Z,100.00
2022-12-23T08:33:33.776Z,100.00
2022-12-23T08:36:00.292Z,100.00
2022-12-23T08:38:26.843Z,100.00
2022-12-23T08:40:53.293Z,100.00
2022-12-23T08:43:19.826Z,100.00
2022-12-23T08:45:46.526Z,100.00
2022-12-23T08:48:13.657Z,100.00
2022-12-23T08:50:41.920Z,100.00
2022-12-23T08:53:09.022Z,100.00
2022-12-23T08:55:44.121Z,100.00
2022-12-23T08:58:12.404Z,100.00
2022-12-23T09:00:39.121Z,100.00
2022-12-23T09:03:06.260Z,100.00
2022-12-23T09:05:33.713Z,100.00
2022-12-23T09:08:00.725Z,100.00
2022-12-23T09:10:27.207Z,100.00
2022-12-23T09:12:55.203Z,100.00
2022-12-23T09:15:23.456Z,100.00
2022-12-23T09:17:49.932Z,100.00
2022-12-23T09:20:16.514Z,100.00
2022-12-23T09:22:43.229Z,100.00
2022-12-23T09:25:10.953Z,100.00
2022-12-23T09:27:37.517Z,100.00
2022-12-23T09:30:04.434Z,100.00
2022-12-23T09:32:32.473Z,100.00
2022-12-23T09:34:58.977Z,100.00
2022-12-23T09:37:25.564Z,100.00
2022-12-23T09:39:52.041Z,100.00
2022-12-23T09:42:34.624Z,100.00
2022-12-23T09:45:16.599Z,100.00
2022-12-23T09:47:44.145Z,100.00
2022-12-23T09:50:23.662Z,100.00
2022-12-23T09:53:00.235Z,100.00
2022-12-23T09:55:40.184Z,100.00
2022-12-23T09:58:26.104Z,100.00
2022-12-23T10:01:18.823Z,100.00
2022-12-23T10:03:59.016Z,100.00
2022-12-23T10:06:28.904Z,100.00
2022-12-23T10:09:00.830Z,100.00
2022-12-23T10:11:31.200Z,100.00
2022-12-23T10:14:20.363Z,100.00
2022-12-23T10:16:55.860Z,100.00
2022-12-23T10:19:26.274Z,100.00
2022-12-23T10:22:00.635Z,100.00
2022-12-23T10:24:36.519Z,100.00
2022-12-23T10:27:15.384Z,100.00
2022-12-23T10:29:42.442Z,100.00
2022-12-23T10:32:17.866Z,100.00
2022-12-23T10:34:56.342Z,100.00
2022-12-23T10:37:44.338Z,100.00
2022-12-23T10:40:33.069Z,100.00
2022-12-23T10:44:10.561Z,100.00
2022-12-23T10:46:52.701Z,100.00
2022-12-23T10:49:40.938Z,100.00
2022-12-23T10:52:21.426Z,100.00
2022-12-23T10:54:48.402Z,100.00
2022-12-23T10:57:17.326Z,100.00
2022-12-23T10:59:44.145Z,100.00
2022-12-23T11:02:14.183Z,100.00
2022-12-23T11:04:44.481Z,100.00
2022-12-23T11:07:43.452Z,100.00
2022-12-23T11:10:13.170Z,100.00
2022-12-23T11:12:42.742Z,100.00
2022-12-23T11:15:30.785Z,100.00
2022-12-23T11:18:02.753Z,100.00
2022-12-23T11:20:30.334Z,100.00
2022-12-23T11:23:02.238Z,100.00
2022-12-23T11:25:36.877Z,100.00
2022-12-23T11:28:22.100Z,99.91
2022-12-23T11:31:08.649Z,99.29
2022-12-23T11:33:39.862Z,99.95
2022-12-23T11:36:08.401Z,98.97
2022-12-23T11:38:37.637Z,99.80
2022-12-23T11:41:05.227Z,99.34
2022-12-23T11:43:33.204Z,99.80
2022-12-23T11:46:29.461Z,98.68
2022-12-23T11:49:23.082Z,98.72
2022-12-23T11:52:01.921Z,99.04
2022-12-23T11:54:29.239Z,98.87
2022-12-23T11:56:56.634Z,98.93
2022-12-23T11:59:39.820Z,99.46
2022-12-23T12:02:12.469Z,99.53
2022-12-23T12:04:41.023Z,100.00
2022-12-23T12:07:13.108Z,100.00
2022-12-23T12:09:42.086Z,99.96
2022-12-23T12:12:15.868Z,100.00
2022-12-23T12:14:44.388Z,100.00
2022-12-23T12:17:48.247Z,99.81
2022-12-23T12:20:21.992Z,99.97
2022-12-23T12:22:55.424Z,100.00
2022-12-23T12:25:29.023Z,100.00
2022-12-23T12:28:09.045Z,100.00
2022-12-23T12:30:44.155Z,100.00
2022-12-23T12:33:26.943Z,100.00
2022-12-23T12:36:07.434Z,100.00
2022-12-23T12:38:39.183Z,100.00
2022-12-23T12:41:14.197Z,100.00
2022-12-23T12:43:48.503Z,100.00
2022-12-23T12:46:51.011Z,100.00
2022-12-23T12:49:38.380Z,100.00
2022-12-23T12:52:13.240Z,100.00
2022-12-23T12:54:50.914Z,100.00
2022-12-23T12:57:20.488Z,100.00
2022-12-23T12:59:50.107Z,100.00
2022-12-23T13:02:19.617Z,100.00
2022-12-23T13:05:16.881Z,100.00
2022-12-23T13:08:03.279Z,100.00
2022-12-23T13:10:55.760Z,100.00
2022-12-23T13:13:32.381Z,100.00
2022-12-23T13:16:31.909Z,100.00
2022-12-23T13:19:15.628Z,100.00
2022-12-23T13:21:55.176Z,100.00
2022-12-23T13:24:32.769Z,100.00
2022-12-23T13:27:11.839Z,100.00
2022-12-23T13:29:44.147Z,100.00
2022-12-23T13:32:18.146Z,100.00
2022-12-23T13:34:52.367Z,100.00
2022-12-23T13:37:31.697Z,100.00
2022-12-23T13:40:04.055Z,100.00
2022-12-23T13:42:35.510Z,100.00
2022-12-23T13:45:03.939Z,100.00
2022-12-23T13:47:50.653Z,100.00
2022-12-23T13:50:29.286Z,100.00
2022-12-23T13:53:47.449Z,100.00
2022-12-23T13:56:30.379Z,100.00
2022-12-23T13:58:58.392Z,100.00
2022-12-23T14:01:41.698Z,100.00
2022-12-23T14:04:33.031Z,100.00
2022-12-23T14:07:27.185Z,100.00
2022-12-23T14:09:58.535Z,100.00
2022-12-23T14:12:29.628Z,100.00
2022-12-23T14:15:27.399Z,100.00
2022-12-23T14:18:23.627Z,100.00
2022-12-23T14:21:46.292Z,100.00
2022-12-23T14:24:34.346Z,100.00
2022-12-23T14:27:38.545Z,100.00
2022-12-23T14:30:34.780Z,100.00
2022-12-23T14:33:16.025Z,100.00
2022-12-23T14:35:43.086Z,100.00
2022-12-23T14:38:15.424Z,100.00
2022-12-23T14:40:41.858Z,100.00
2022-12-23T14:43:43.702Z,100.00
2022-12-23T14:46:30.118Z,100.00
2022-12-23T14:49:22.569Z,100.00
2022-12-23T14:51:43.114Z,100.00
2022-12-23T14:54:15.113Z,100.00
2022-12-23T14:56:47.392Z,100.00
2022-12-23T15:02:47.749Z,100.00
2022-12-23T15:05:15.032Z,100.00
2022-12-23T15:10:36.714Z,100.00
2022-12-23T15:13:06.029Z,100.00
2022-12-23T15:15:33.786Z,100.00
2022-12-23T15:18:06.966Z,100.00
2022-12-23T15:20:35.241Z,100.00
2022-12-23T15:23:08.502Z,100.00
2022-12-23T15:25:39.284Z,100.00
2022-12-23T15:28:06.306Z,100.00
2022-12-23T15:30:45.386Z,100.00
2022-12-23T15:34:00.614Z,100.00
2022-12-23T15:36:06.279Z,100.00
2022-12-23T15:38:37.369Z,100.00
2022-12-23T15:41:13.429Z,100.00
2022-12-23T15:43:44.825Z,100.00
2022-12-23T15:46:29.140Z,100.00
2022-12-23T15:48:56.724Z,100.00
2022-12-23T15:51:57.641Z,100.00
2022-12-23T15:54:27.200Z,100.00
2022-12-23T15:56:55.978Z,100.00
2022-12-23T15:59:29.475Z,100.00
2022-12-23T16:01:56.277Z,100.00
2022-12-23T16:04:28.604Z,100.00
2022-12-23T16:06:56.125Z,100.00
2022-12-23T16:09:30.748Z,100.00
2022-12-23T16:12:22.428Z,100.00
2022-12-23T16:14:57.814Z,100.00
2022-12-23T16:17:36.896Z,100.00
2022-12-23T16:20:15.657Z,100.00
2022-12-23T16:22:44.575Z,100.00
2022-12-23T16:25:25.660Z,100.00
2022-12-23T16:28:05.061Z,100.00
2022-12-23T16:30:37.955Z,100.00
2022-12-23T16:33:21.550Z,100.00
2022-12-23T16:35:48.080Z,100.00
2022-12-23T16:38:26.582Z,100.00
2022-12-23T16:40:55.626Z,100.00
2022-12-23T16:43:24.057Z,100.00
2022-12-23T16:45:54.123Z,100.00
2022-12-23T16:48:36.504Z,100.00
2022-12-23T16:51:07.248Z,100.00
2022-12-23T16:53:34.023Z,100.00
2022-12-23T16:56:01.508Z,100.00
2022-12-23T16:58:29.006Z,100.00
2022-12-23T17:00:55.938Z,100.00
2022-12-23T17:03:22.507Z,100.00
2022-12-23T17:05:49.230Z,100.00
2022-12-23T17:08:15.880Z,99.96
2022-12-23T17:10:44.609Z,100.00
2022-12-23T17:13:17.414Z,98.90
2022-12-23T17:15:46.647Z,98.45
2022-12-23T17:18:15.163Z,98.29
2022-12-23T17:20:44.805Z,97.75
2022-12-23T17:23:28.056Z,98.13
2022-12-23T17:25:54.756Z,97.68
2022-12-23T17:28:21.968Z,97.42
2022-12-23T17:30:54.618Z,96.80
2022-12-23T17:33:21.457Z,96.64
2022-12-23T17:35:48.118Z,96.01
2022-12-23T17:38:16.079Z,96.04
2022-12-23T17:40:44.849Z,96.06
2022-12-23T17:43:16.120Z,95.31
2022-12-23T17:45:43.799Z,95.17
2022-12-23T17:48:20.200Z,95.44
2022-12-23T17:50:48.763Z,94.48
2022-12-23T17:53:19.682Z,94.58
2022-12-23T17:55:47.196Z,93.73
2022-12-23T17:58:14.379Z,93.76
2022-12-23T18:00:41.341Z,92.89
2022-12-23T18:03:21.456Z,92.94
2022-12-23T18:05:47.950Z,91.99
2022-12-23T18:08:14.553Z,91.92
2022-12-23T18:10:41.128Z,92.14
2022-12-23T18:13:17.134Z,92.22
2022-12-23T18:15:45.604Z,92.22
2022-12-23T18:18:17.901Z,92.17
2022-12-23T18:20:51.392Z,92.15
2022-12-23T18:23:34.154Z,91.96
2022-12-23T18:26:00.823Z,92.09
2022-12-23T18:28:27.378Z,92.72
2022-12-23T18:30:56.363Z,92.37
2022-12-23T18:33:24.172Z,92.42
2022-12-23T18:35:51.015Z,92.48
2022-12-23T18:38:18.552Z,92.29
2022-12-23T18:40:45.585Z,92.29
2022-12-23T18:43:23.085Z,91.71
2022-12-23T18:45:53.307Z,91.70
2022-12-23T18:48:21.437Z,91.26
2022-12-23T18:50:48.213Z,91.54
2022-12-23T18:53:23.711Z,90.69
2022-12-23T18:55:52.299Z,91.17
2022-12-23T18:58:19.912Z,90.89
2022-12-23T19:00:48.111Z,91.30
2022-12-23T19:03:29.305Z,90.87
2022-12-23T19:05:57.450Z,91.50
2022-12-23T19:08:27.501Z,91.39
2022-12-23T19:10:55.114Z,90.96
2022-12-23T19:13:21.737Z,91.47
2022-12-23T19:15:48.398Z,91.46
2022-12-23T19:18:17.626Z,90.87
2022-12-23T19:20:45.941Z,90.86
2022-12-23T19:23:13.243Z,90.68
2022-12-23T19:25:49.224Z,90.61
2022-12-23T19:28:20.936Z,90.21
2022-12-23T19:30:47.534Z,90.03
2022-12-23T19:33:14.084Z,89.60
2022-12-23T19:35:53.851Z,89.79
2022-12-23T19:38:20.369Z,89.41
2022-12-23T19:40:56.541Z,89.36
2022-12-23T19:43:23.154Z,89.71
2022-12-23T19:46:00.569Z,90.05
2022-12-23T19:48:27.998Z,89.83
2022-12-23T19:51:06.396Z,90.26
2022-12-23T19:53:33.194Z,91.16
2022-12-23T19:56:12.607Z,91.46
2022-12-23T19:58:40.778Z,91.89
2022-12-23T20:01:15.419Z,92.74
2022-12-23T20:03:43.417Z,92.23
2022-12-23T20:06:22.324Z,92.30
2022-12-23T20:08:49.066Z,93.18
2022-12-23T20:11:25.681Z,93.39
2022-12-23T20:13:53.808Z,92.99
2022-12-23T20:16:20.612Z,92.50
2022-12-23T20:18:47.414Z,91.74
2022-12-23T20:21:13.969Z,91.27
2022-12-23T20:23:40.516Z,91.26
2022-12-23T20:26:07.303Z,90.66
2022-12-23T20:28:34.113Z,90.91
2022-12-23T20:31:07.683Z,90.00
2022-12-23T20:33:35.813Z,89.99
2022-12-23T20:36:03.071Z,89.92
2022-12-23T20:38:29.550Z,89.32
2022-12-23T20:40:56.064Z,88.83
2022-12-23T20:43:22.587Z,88.73
2022-12-23T20:45:50.155Z,88.52
2022-12-23T20:48:18.151Z,88.58
2022-12-23T20:50:44.676Z,88.26
2022-12-23T20:53:11.153Z,88.85
2022-12-23T20:55:37.713Z,88.26
2022-12-23T20:58:24.133Z,88.34
2022-12-23T21:00:50.631Z,87.84
2022-12-23T21:03:17.193Z,87.85
2022-12-23T21:05:43.789Z,87.64
2022-12-23T21:08:10.327Z,88.68
2022-12-23T21:10:36.922Z,89.23
2022-12-23T21:13:03.892Z,89.28
2022-12-23T21:15:33.836Z,89.34
2022-12-23T21:18:00.410Z,89.32
2022-12-23T21:20:27.564Z,89.76
2022-12-23T21:22:54.059Z,90.37
2022-12-23T21:25:20.634Z,90.74
2022-12-23T21:27:47.171Z,91.12
2022-12-23T21:30:13.967Z,92.10
2022-12-23T21:32:40.476Z,92.57
2022-12-23T21:35:07.415Z,92.32
2022-12-23T21:37:33.887Z,91.93
2022-12-23T21:40:00.359Z,92.31
2022-12-23T21:42:26.896Z,92.48
2022-12-23T21:44:53.408Z,92.43
2022-12-23T21:47:19.941Z,92.27
2022-12-23T21:49:46.439Z,92.24
2022-12-23T21:52:12.967Z,92.65
2022-12-23T21:54:39.473Z,92.41
2022-12-23T21:57:05.987Z,92.18
2022-12-23T21:59:35.215Z,91.89
2022-12-23T22:02:02.196Z,91.32
2022-12-23T22:04:29.329Z,90.57
2022-12-23T22:06:55.871Z,91.36
2022-12-23T22:09:22.449Z,90.71
2022-12-23T22:11:49.056Z,90.80
2022-12-23T22:14:18.022Z,89.64
2022-12-23T22:16:44.614Z,89.94
2022-12-23T22:19:11.777Z,89.70
2022-12-23T22:21:39.785Z,89.06
2022-12-23T22:24:06.986Z,88.78
2022-12-23T22:26:34.718Z,88.71
2022-12-23T22:29:05.581Z,88.39
2022-12-23T22:31:38.110Z,88.56
2022-12-23T22:34:05.708Z,88.20
2022-12-23T22:36:32.845Z,88.38
2022-12-23T22:39:01.369Z,88.57
2022-12-23T22:41:30.132Z,88.67
2022-12-23T22:43:57.954Z,88.40
2022-12-23T22:46:25.438Z,88.43
2022-12-23T22:48:52.876Z,87.55
2022-12-23T22:51:23.495Z,87.34
2022-12-23T22:53:50.050Z,87.01
2022-12-23T22:56:18.388Z,87.08
2022-12-23T22:58:44.922Z,87.28
2022-12-23T23:01:22.459Z,86.39
2022-12-23T23:03:54.206Z,86.58
2022-12-23T23:06:20.690Z,86.41
2022-12-23T23:08:47.223Z,86.26
2022-12-23T23:11:13.666Z,85.78
2022-12-23T23:13:40.116Z,86.65
2022-12-23T23:16:06.893Z,85.93
2022-12-23T23:18:33.588Z,86.03
2022-12-23T23:21:00.127Z,86.26
2022-12-23T23:23:26.623Z,85.38
2022-12-23T23:25:53.065Z,85.39
2022-12-23T23:28:19.597Z,86.23
2022-12-23T23:30:46.120Z,85.83
2022-12-23T23:33:12.945Z,85.78
2022-12-23T23:35:39.465Z,85.77
2022-12-23T23:38:06.002Z,85.60
2022-12-23T23:40:32.677Z,85.87
2022-12-23T23:42:59.404Z,85.82
2022-12-23T23:45:27.387Z,85.66
2022-12-23T23:47:55.423Z,86.05
2022-12-23T23:50:22.660Z,86.06
2022-12-23T23:52:49.199Z,86.29
2022-12-23T23:55:15.767Z,85.98
2022-12-23T23:57:42.280Z,86.48
